Аэропорт
Ханты-Мансийск (USHH)

 USHH / HMA
ЗЦ Екатеринбург
Тюмень (USTV)
Тюмень (USTV)
 61.02850, 69.08610  / 76 ft

 USHH 092000Z 19005MPS CAVOK M02/M09 Q1013 R24/010060 NOSIG
 TAF USHH 091351Z 0915/1015 21006G14MPS 9999 SCT017 TEMPO 0915/0921 6000 -SN BECMG 0917/0919 19005G12MPS
USHH_j_0220
показать схемы
Название сценария Тип сценария Flight Simulator 9 Flight Simulator X Prepar3D v2 Prepar3D v3 Prepar3D v4 xPlane
Khanty-Mansiysk USHH (P3Dv4.4+) бесплатный
Ханты-Мансийск USHH XP Aleksei Nelaev автор бесплатный


2020 © VATRUS division (Privacy Policy)